Buffalo, MN (55313)

9:21 AM CST on December 25, 2014 (GMT -0600)
Buffalo Hills | Change Station
CLOSE
Current Station
Personal Weather Station
Location: Buffalo, MN
Elevation: 1004 ft
Nearby Weather Stations

Elev 1004 ft 45.18 °N, 93.87 °W | Updated 16 seconds ago

Overcast
Overcast
30.8 °F
Feels Like 25 °F
N
6.1
Wind Variable Wind from SE
Gusts 8.1 mph

Today
High -- | Low -- °F
--% Chance of Precip.
Yesterday
High -- | Low -- °F
Precip. -- in
7:53 AM 4:38 PM
Waxing Crescent, 17% visible
Pressure 29.69 in
Visibility 10.0 miles
Clouds Overcast 1000 ft
Windchill 25 °F
Dew Point 30 °F
Humidity 98%
Rainfall 0.00 in
Snow Depth Not available.
UV 0 out of 12
Pollen .10 out of 12
Air Quality Not available.
Flu Activity Not available.
METAR KCFE 251515Z AUTO 18006KT 10SM OVC010 M01/M02 A2969 RMK AO2 T10061025

More Conditions Fewer Conditions

Pressure 29.69 in
Visibility 10.0 miles
Clouds Overcast 1000 ft
Windchill 25 °F
Dew Point 30 °F
Humidity 98%
Rainfall 0.00 in
Snow Depth Not available.
UV 0 out of 12
Pollen .10 out of 12
Air Quality Not available.
Flu Activity Not available.
METAR KCFE 251515Z AUTO 18006KT 10SM OVC010 M01/M02 A2969 RMK AO2 T10061025

More Conditions Fewer Conditions

10-Day Weather Forecast

Almanac

Astronomy

Dec. 25, 2014 Rise Set
Actual Time
Civil Twilight
Nautical Twilight
Astronomical Twilight
Moon
Length of Visible Light
Length of Day
Tomorrow will be .
, % of the Moon is Illuminated

Today's Extremes

State Highs State Lows

Community

WunderPhotos

Upload Photos

1,780,302 photos uploaded!

WunderBlogs® & News

Nearby

Air Quality

  Air Quality AQ Index Pollutant
Not available.

Snow Depth

Station Depth Elevation

Earthquake Activity

City Distance Mag. Time & Date
Minimum magnitude displayed is 2.5.

Coastal Water Temperatures

Place Temperature

Nearby Weather Stations